Maurine, South Dakota
Current Conditions -  °F | °C
As of 8:55 PM on Thursday 18 Dec 2014 (Local Time) from KPHP Reporting Station
Clear Clear  
Wind Chill:   Ceiling: Unl
Heat Index: 15°   Visibility: 10mi
Dew Point: 12°   Wind: 5mph
Humidity: 88%   Direction: 290°WNW
Pressure: 30.04"   Gusts: NA
Location:  44.8511°N, 102.128°W
Report Text: KPHP 190355Z AUTO 29004KT 10SM CLR M09/M11 A3004 RMK AO2 SLP204 T10941111
Loading
Personal Weather Stations






























Interactive Weather Map New forecast layout! Learn more

10-Day Weather Forecast

Advertisements
Track Severe Weather on mobile